sensor_id;sensor_type;location;lat;lon;timestamp;P1;durP1;ratioP1;P2;durP2;ratioP2
53339;SDS011;46212;50.258;19.062;2023-02-15T00:00:05;39.08;;;19.67;;
53339;SDS011;46212;50.258;19.062;2023-02-15T00:02:35;32.63;;;15.60;;
53339;SDS011;46212;50.258;19.062;2023-02-15T00:05:00;32.60;;;17.07;;
53339;SDS011;46212;50.258;19.062;2023-02-15T00:07:26;36.53;;;18.63;;
53339;SDS011;46212;50.258;19.062;2023-02-15T00:09:51;32.93;;;16.63;;
53339;SDS011;46212;50.258;19.062;2023-02-15T00:12:17;32.53;;;16.33;;
53339;SDS011;46212;50.258;19.062;2023-02-15T00:14:42;35.97;;;16.50;;
53339;SDS011;46212;50.258;19.062;2023-02-15T00:17:08;34.58;;;16.60;;
53339;SDS011;46212;50.258;19.062;2023-02-15T00:19:33;39.63;;;17.42;;
53339;SDS011;46212;50.258;19.062;2023-02-15T00:21:59;33.00;;;15.98;;
53339;SDS011;46212;50.258;19.062;2023-02-15T00:24:25;28.03;;;15.03;;
53339;SDS011;46212;50.258;19.062;2023-02-15T00:26:51;28.83;;;15.20;;
53339;SDS011;46212;50.258;19.062;2023-02-15T00:29:17;29.65;;;14.90;;
53339;SDS011;46212;50.258;19.062;2023-02-15T00:31:43;31.65;;;14.07;;
53339;SDS011;46212;50.258;19.062;2023-02-15T00:34:13;25.93;;;15.17;;
53339;SDS011;46212;50.258;19.062;2023-02-15T00:36:50;25.70;;;14.68;;
53339;SDS011;46212;50.258;19.062;2023-02-15T00:39:16;28.20;;;14.33;;
53339;SDS011;46212;50.258;19.062;2023-02-15T00:41:42;30.42;;;14.20;;
53339;SDS011;46212;50.258;19.062;2023-02-15T00:44:08;27.70;;;14.52;;
53339;SDS011;46212;50.258;19.062;2023-02-15T00:46:34;25.83;;;14.00;;
53339;SDS011;46212;50.258;19.062;2023-02-15T00:49:00;28.70;;;11.80;;
53339;SDS011;46212;50.258;19.062;2023-02-15T00:51:26;26.63;;;12.88;;
53339;SDS011;46212;50.258;19.062;2023-02-15T00:53:52;28.48;;;13.23;;
53339;SDS011;46212;50.258;19.062;2023-02-15T00:56:17;24.67;;;12.75;;
53339;SDS011;46212;50.258;19.062;2023-02-15T00:58:43;29.60;;;13.30;;
53339;SDS011;46212;50.258;19.062;2023-02-15T01:01:10;26.92;;;13.45;;
53339;SDS011;46212;50.258;19.062;2023-02-15T01:03:40;31.08;;;14.73;;
53339;SDS011;46212;50.258;19.062;2023-02-15T01:06:06;30.58;;;14.60;;
53339;SDS011;46212;50.258;19.062;2023-02-15T01:08:32;36.33;;;14.87;;
53339;SDS011;46212;50.258;19.062;2023-02-15T01:11:02;27.52;;;14.75;;
53339;SDS011;46212;50.258;19.062;2023-02-15T01:13:35;33.63;;;15.00;;
53339;SDS011;46212;50.258;19.062;2023-02-15T01:16:02;37.65;;;16.52;;
53339;SDS011;46212;50.258;19.062;2023-02-15T01:18:28;34.13;;;15.38;;
53339;SDS011;46212;50.258;19.062;2023-02-15T01:20:53;32.20;;;17.33;;
53339;SDS011;46212;50.258;19.062;2023-02-15T01:23:19;33.38;;;16.63;;
53339;SDS011;46212;50.258;19.062;2023-02-15T01:25:44;38.50;;;16.15;;
53339;SDS011;46212;50.258;19.062;2023-02-15T01:28:10;36.03;;;16.90;;
53339;SDS011;46212;50.258;19.062;2023-02-15T01:30:36;42.63;;;16.97;;
53339;SDS011;46212;50.258;19.062;2023-02-15T01:33:01;32.33;;;15.93;;
53339;SDS011;46212;50.258;19.062;2023-02-15T01:35:27;37.80;;;16.10;;
53339;SDS011;46212;50.258;19.062;2023-02-15T01:37:53;30.30;;;15.45;;
53339;SDS011;46212;50.258;19.062;2023-02-15T01:40:22;30.88;;;15.05;;
53339;SDS011;46212;50.258;19.062;2023-02-15T01:42:52;41.15;;;18.77;;
53339;SDS011;46212;50.258;19.062;2023-02-15T01:45:20;33.70;;;16.08;;
53339;SDS011;46212;50.258;19.062;2023-02-15T01:48:06;37.95;;;17.08;;
53339;SDS011;46212;50.258;19.062;2023-02-15T01:50:35;37.85;;;17.20;;
53339;SDS011;46212;50.258;19.062;2023-02-15T01:55:49;38.53;;;18.63;;
53339;SDS011;46212;50.258;19.062;2023-02-15T01:58:21;35.33;;;17.10;;
53339;SDS011;46212;50.258;19.062;2023-02-15T02:00:50;33.15;;;17.10;;
53339;SDS011;46212;50.258;19.062;2023-02-15T02:03:15;35.88;;;18.55;;
53339;SDS011;46212;50.258;19.062;2023-02-15T02:05:41;36.33;;;19.13;;
53339;SDS011;46212;50.258;19.062;2023-02-15T02:08:06;27.60;;;14.15;;
53339;SDS011;46212;50.258;19.062;2023-02-15T02:10:34;32.10;;;16.00;;
53339;SDS011;46212;50.258;19.062;2023-02-15T02:13:02;26.23;;;15.67;;
53339;SDS011;46212;50.258;19.062;2023-02-15T02:15:40;32.28;;;16.13;;
53339;SDS011;46212;50.258;19.062;2023-02-15T02:24:13;35.22;;;17.40;;
53339;SDS011;46212;50.258;19.062;2023-02-15T02:29:33;33.42;;;15.80;;
53339;SDS011;46212;50.258;19.062;2023-02-15T02:32:22;28.88;;;14.40;;
53339;SDS011;46212;50.258;19.062;2023-02-15T02:37:51;32.17;;;16.02;;
53339;SDS011;46212;50.258;19.062;2023-02-15T02:43:13;31.75;;;16.45;;
53339;SDS011;46212;50.258;19.062;2023-02-15T02:48:21;33.03;;;16.33;;
53339;SDS011;46212;50.258;19.062;2023-02-15T02:50:50;38.28;;;18.85;;
53339;SDS011;46212;50.258;19.062;2023-02-15T02:53:16;37.65;;;19.85;;
53339;SDS011;46212;50.258;19.062;2023-02-15T02:55:43;31.10;;;17.67;;
53339;SDS011;46212;50.258;19.062;2023-02-15T02:58:26;39.67;;;18.63;;
53339;SDS011;46212;50.258;19.062;2023-02-15T03:05:59;34.35;;;16.45;;
53339;SDS011;46212;50.258;19.062;2023-02-15T03:08:37;33.42;;;15.27;;
53339;SDS011;46212;50.258;19.062;2023-02-15T03:11:07;41.47;;;17.55;;
53339;SDS011;46212;50.258;19.062;2023-02-15T03:13:34;41.13;;;18.30;;
53339;SDS011;46212;50.258;19.062;2023-02-15T03:16:00;29.77;;;16.08;;
53339;SDS011;46212;50.258;19.062;2023-02-15T03:18:47;35.33;;;16.58;;
53339;SDS011;46212;50.258;19.062;2023-02-15T03:21:28;30.20;;;15.77;;
53339;SDS011;46212;50.258;19.062;2023-02-15T03:24:09;32.97;;;15.95;;
53339;SDS011;46212;50.258;19.062;2023-02-15T03:26:38;35.55;;;16.77;;
53339;SDS011;46212;50.258;19.062;2023-02-15T03:29:07;34.80;;;17.08;;
53339;SDS011;46212;50.258;19.062;2023-02-15T03:31:36;30.40;;;16.23;;
53339;SDS011;46212;50.258;19.062;2023-02-15T03:34:06;37.83;;;17.25;;
53339;SDS011;46212;50.258;19.062;2023-02-15T03:36:52;35.50;;;16.50;;
53339;SDS011;46212;50.258;19.062;2023-02-15T03:44:51;29.20;;;15.70;;
53339;SDS011;46212;50.258;19.062;2023-02-15T03:47:19;34.30;;;15.70;;
53339;SDS011;46212;50.258;19.062;2023-02-15T03:49:50;32.17;;;15.48;;
53339;SDS011;46212;50.258;19.062;2023-02-15T03:52:20;32.45;;;16.02;;
53339;SDS011;46212;50.258;19.062;2023-02-15T03:54:49;30.63;;;14.68;;
53339;SDS011;46212;50.258;19.062;2023-02-15T03:57:17;30.33;;;15.93;;
53339;SDS011;46212;50.258;19.062;2023-02-15T04:00:11;33.17;;;14.50;;
53339;SDS011;46212;50.258;19.062;2023-02-15T04:03:22;31.48;;;14.70;;
53339;SDS011;46212;50.258;19.062;2023-02-15T04:05:56;30.85;;;14.35;;
53339;SDS011;46212;50.258;19.062;2023-02-15T04:08:21;30.75;;;15.77;;
53339;SDS011;46212;50.258;19.062;2023-02-15T04:11:07;35.53;;;14.38;;
53339;SDS011;46212;50.258;19.062;2023-02-15T04:13:32;35.17;;;14.52;;
53339;SDS011;46212;50.258;19.062;2023-02-15T04:15:58;37.83;;;16.57;;
53339;SDS011;46212;50.258;19.062;2023-02-15T04:18:36;38.15;;;15.95;;
53339;SDS011;46212;50.258;19.062;2023-02-15T04:21:23;34.55;;;16.08;;
53339;SDS011;46212;50.258;19.062;2023-02-15T04:24:08;37.88;;;16.05;;
53339;SDS011;46212;50.258;19.062;2023-02-15T04:26:53;34.50;;;15.30;;
53339;SDS011;46212;50.258;19.062;2023-02-15T04:29:20;33.45;;;15.48;;
53339;SDS011;46212;50.258;19.062;2023-02-15T04:31:46;34.75;;;16.08;;
53339;SDS011;46212;50.258;19.062;2023-02-15T04:34:12;33.20;;;15.75;;
53339;SDS011;46212;50.258;19.062;2023-02-15T04:36:38;35.67;;;15.02;;
53339;SDS011;46212;50.258;19.062;2023-02-15T04:39:04;28.80;;;14.67;;
53339;SDS011;46212;50.258;19.062;2023-02-15T04:41:31;33.35;;;16.05;;
53339;SDS011;46212;50.258;19.062;2023-02-15T04:43:57;28.80;;;15.23;;
53339;SDS011;46212;50.258;19.062;2023-02-15T04:46:24;37.80;;;15.10;;
53339;SDS011;46212;50.258;19.062;2023-02-15T04:48:49;32.75;;;15.25;;
53339;SDS011;46212;50.258;19.062;2023-02-15T04:51:15;36.17;;;16.65;;
53339;SDS011;46212;50.258;19.062;2023-02-15T04:53:40;36.53;;;14.48;;
53339;SDS011;46212;50.258;19.062;2023-02-15T04:56:06;38.05;;;17.17;;
53339;SDS011;46212;50.258;19.062;2023-02-15T04:58:31;41.22;;;17.42;;
53339;SDS011;46212;50.258;19.062;2023-02-15T05:00:57;38.75;;;17.38;;
53339;SDS011;46212;50.258;19.062;2023-02-15T05:03:23;37.35;;;16.10;;
53339;SDS011;46212;50.258;19.062;2023-02-15T05:05:50;36.00;;;17.08;;
53339;SDS011;46212;50.258;19.062;2023-02-15T05:08:15;40.80;;;18.70;;
53339;SDS011;46212;50.258;19.062;2023-02-15T05:10:41;36.70;;;16.70;;
53339;SDS011;46212;50.258;19.062;2023-02-15T05:13:06;39.00;;;15.73;;
53339;SDS011;46212;50.258;19.062;2023-02-15T05:15:32;43.50;;;17.90;;
53339;SDS011;46212;50.258;19.062;2023-02-15T05:17:57;39.13;;;15.88;;
53339;SDS011;46212;50.258;19.062;2023-02-15T05:20:23;37.70;;;15.52;;
53339;SDS011;46212;50.258;19.062;2023-02-15T05:22:48;33.67;;;15.63;;
53339;SDS011;46212;50.258;19.062;2023-02-15T05:25:14;37.42;;;17.13;;
53339;SDS011;46212;50.258;19.062;2023-02-15T05:27:58;37.30;;;17.23;;
53339;SDS011;46212;50.258;19.062;2023-02-15T05:30:41;37.33;;;16.98;;
53339;SDS011;46212;50.258;19.062;2023-02-15T05:33:08;36.23;;;16.13;;
53339;SDS011;46212;50.258;19.062;2023-02-15T05:35:34;38.10;;;18.73;;
53339;SDS011;46212;50.258;19.062;2023-02-15T05:37:59;41.67;;;17.23;;
53339;SDS011;46212;50.258;19.062;2023-02-15T05:40:25;35.17;;;17.08;;
53339;SDS011;46212;50.258;19.062;2023-02-15T05:42:50;38.95;;;16.10;;
53339;SDS011;46212;50.258;19.062;2023-02-15T05:45:16;45.58;;;20.67;;
53339;SDS011;46212;50.258;19.062;2023-02-15T05:47:42;48.10;;;20.27;;
53339;SDS011;46212;50.258;19.062;2023-02-15T05:50:07;51.13;;;22.50;;
53339;SDS011;46212;50.258;19.062;2023-02-15T05:52:34;40.60;;;18.10;;
53339;SDS011;46212;50.258;19.062;2023-02-15T05:54:59;35.05;;;16.15;;
53339;SDS011;46212;50.258;19.062;2023-02-15T05:57:26;34.83;;;15.40;;
53339;SDS011;46212;50.258;19.062;2023-02-15T05:59:51;34.10;;;16.15;;
53339;SDS011;46212;50.258;19.062;2023-02-15T06:02:17;40.03;;;16.05;;
53339;SDS011;46212;50.258;19.062;2023-02-15T06:04:43;32.10;;;15.27;;
53339;SDS011;46212;50.258;19.062;2023-02-15T06:07:08;33.75;;;15.73;;
53339;SDS011;46212;50.258;19.062;2023-02-15T06:09:33;31.85;;;15.13;;
53339;SDS011;46212;50.258;19.062;2023-02-15T06:11:59;36.30;;;16.20;;
53339;SDS011;46212;50.258;19.062;2023-02-15T06:14:24;30.48;;;15.63;;
53339;SDS011;46212;50.258;19.062;2023-02-15T06:16:50;32.38;;;14.98;;
53339;SDS011;46212;50.258;19.062;2023-02-15T06:19:15;29.13;;;15.13;;
53339;SDS011;46212;50.258;19.062;2023-02-15T06:21:41;33.75;;;15.25;;
53339;SDS011;46212;50.258;19.062;2023-02-15T06:24:08;35.08;;;14.00;;
53339;SDS011;46212;50.258;19.062;2023-02-15T06:26:33;32.60;;;17.42;;
53339;SDS011;46212;50.258;19.062;2023-02-15T06:28:59;54.13;;;33.58;;
53339;SDS011;46212;50.258;19.062;2023-02-15T06:31:25;35.53;;;21.10;;
53339;SDS011;46212;50.258;19.062;2023-02-15T06:33:50;32.08;;;15.80;;
53339;SDS011;46212;50.258;19.062;2023-02-15T06:36:15;31.10;;;15.90;;
53339;SDS011;46212;50.258;19.062;2023-02-15T06:38:41;41.67;;;17.13;;
53339;SDS011;46212;50.258;19.062;2023-02-15T06:41:07;29.83;;;15.50;;
53339;SDS011;46212;50.258;19.062;2023-02-15T06:43:32;30.02;;;16.83;;
53339;SDS011;46212;50.258;19.062;2023-02-15T06:45:59;34.80;;;15.63;;
53339;SDS011;46212;50.258;19.062;2023-02-15T06:48:24;31.38;;;15.65;;
53339;SDS011;46212;50.258;19.062;2023-02-15T06:50:50;37.83;;;17.10;;
53339;SDS011;46212;50.258;19.062;2023-02-15T06:53:15;33.05;;;16.10;;
53339;SDS011;46212;50.258;19.062;2023-02-15T06:55:41;32.15;;;16.63;;
53339;SDS011;46212;50.258;19.062;2023-02-15T06:58:06;31.70;;;16.27;;
53339;SDS011;46212;50.258;19.062;2023-02-15T07:00:32;34.33;;;17.17;;
53339;SDS011;46212;50.258;19.062;2023-02-15T07:02:57;37.63;;;19.92;;
53339;SDS011;46212;50.258;19.062;2023-02-15T07:05:27;57.25;;;25.40;;
53339;SDS011;46212;50.258;19.062;2023-02-15T07:07:56;40.00;;;18.08;;
53339;SDS011;46212;50.258;19.062;2023-02-15T07:10:22;36.13;;;17.40;;
53339;SDS011;46212;50.258;19.062;2023-02-15T07:12:47;41.38;;;20.42;;
53339;SDS011;46212;50.258;19.062;2023-02-15T07:15:14;49.42;;;22.52;;
53339;SDS011;46212;50.258;19.062;2023-02-15T07:17:41;51.40;;;21.38;;
53339;SDS011;46212;50.258;19.062;2023-02-15T07:20:09;48.07;;;23.10;;
53339;SDS011;46212;50.258;19.062;2023-02-15T07:22:37;40.20;;;18.60;;
53339;SDS011;46212;50.258;19.062;2023-02-15T07:25:04;36.38;;;19.05;;
53339;SDS011;46212;50.258;19.062;2023-02-15T07:29:56;31.35;;;16.17;;
53339;SDS011;46212;50.258;19.062;2023-02-15T07:32:21;37.28;;;17.65;;
53339;SDS011;46212;50.258;19.062;2023-02-15T07:34:47;30.42;;;16.63;;
53339;SDS011;46212;50.258;19.062;2023-02-15T07:37:12;37.67;;;18.38;;
53339;SDS011;46212;50.258;19.062;2023-02-15T07:39:37;33.83;;;16.83;;
53339;SDS011;46212;50.258;19.062;2023-02-15T07:42:03;29.38;;;16.85;;
53339;SDS011;46212;50.258;19.062;2023-02-15T07:44:28;35.45;;;17.27;;
53339;SDS011;46212;50.258;19.062;2023-02-15T07:46:54;37.67;;;18.77;;
53339;SDS011;46212;50.258;19.062;2023-02-15T07:49:19;33.50;;;17.42;;
53339;SDS011;46212;50.258;19.062;2023-02-15T07:51:44;38.17;;;19.17;;
53339;SDS011;46212;50.258;19.062;2023-02-15T07:54:10;39.00;;;20.73;;
53339;SDS011;46212;50.258;19.062;2023-02-15T07:56:36;36.37;;;20.30;;
53339;SDS011;46212;50.258;19.062;2023-02-15T07:59:01;39.08;;;19.27;;
53339;SDS011;46212;50.258;19.062;2023-02-15T08:01:30;40.35;;;18.52;;
53339;SDS011;46212;50.258;19.062;2023-02-15T08:03:57;31.80;;;16.65;;
53339;SDS011;46212;50.258;19.062;2023-02-15T08:06:24;32.75;;;15.38;;
53339;SDS011;46212;50.258;19.062;2023-02-15T08:08:51;30.33;;;16.88;;
53339;SDS011;46212;50.258;19.062;2023-02-15T08:11:20;34.45;;;17.73;;
53339;SDS011;46212;50.258;19.062;2023-02-15T08:13:53;33.95;;;15.73;;
53339;SDS011;46212;50.258;19.062;2023-02-15T08:16:28;34.47;;;15.50;;
53339;SDS011;46212;50.258;19.062;2023-02-15T08:19:00;35.95;;;16.77;;
53339;SDS011;46212;50.258;19.062;2023-02-15T08:21:29;67.60;;;34.40;;
53339;SDS011;46212;50.258;19.062;2023-02-15T08:23:55;93.00;;;54.60;;
53339;SDS011;46212;50.258;19.062;2023-02-15T08:26:21;40.23;;;18.33;;
53339;SDS011;46212;50.258;19.062;2023-02-15T08:28:48;34.95;;;16.23;;
53339;SDS011;46212;50.258;19.062;2023-02-15T08:31:15;33.28;;;15.93;;
53339;SDS011;46212;50.258;19.062;2023-02-15T08:33:42;40.10;;;19.47;;
53339;SDS011;46212;50.258;19.062;2023-02-15T08:36:10;34.38;;;16.85;;
53339;SDS011;46212;50.258;19.062;2023-02-15T08:38:37;33.00;;;16.55;;
53339;SDS011;46212;50.258;19.062;2023-02-15T08:41:13;37.37;;;18.57;;
53339;SDS011;46212;50.258;19.062;2023-02-15T08:43:44;36.20;;;19.33;;
53339;SDS011;46212;50.258;19.062;2023-02-15T08:46:11;36.75;;;18.08;;
53339;SDS011;46212;50.258;19.062;2023-02-15T08:48:37;31.58;;;15.95;;
53339;SDS011;46212;50.258;19.062;2023-02-15T08:51:04;40.77;;;19.53;;
53339;SDS011;46212;50.258;19.062;2023-02-15T08:53:31;33.10;;;18.38;;
53339;SDS011;46212;50.258;19.062;2023-02-15T08:55:57;41.50;;;19.10;;
53339;SDS011;46212;50.258;19.062;2023-02-15T08:58:23;37.10;;;16.77;;
53339;SDS011;46212;50.258;19.062;2023-02-15T09:00:49;44.93;;;19.97;;
53339;SDS011;46212;50.258;19.062;2023-02-15T09:03:15;41.33;;;21.13;;
53339;SDS011;46212;50.258;19.062;2023-02-15T09:05:41;39.03;;;18.83;;
53339;SDS011;46212;50.258;19.062;2023-02-15T09:08:06;38.00;;;19.55;;
53339;SDS011;46212;50.258;19.062;2023-02-15T09:10:31;40.00;;;19.38;;
53339;SDS011;46212;50.258;19.062;2023-02-15T09:12:57;38.07;;;19.47;;
53339;SDS011;46212;50.258;19.062;2023-02-15T09:15:22;41.20;;;18.40;;
53339;SDS011;46212;50.258;19.062;2023-02-15T09:17:48;41.30;;;20.13;;
53339;SDS011;46212;50.258;19.062;2023-02-15T09:20:13;32.00;;;19.23;;
53339;SDS011;46212;50.258;19.062;2023-02-15T09:22:39;43.77;;;19.97;;
53339;SDS011;46212;50.258;19.062;2023-02-15T09:25:04;35.95;;;17.00;;
53339;SDS011;46212;50.258;19.062;2023-02-15T09:27:30;36.25;;;18.02;;
53339;SDS011;46212;50.258;19.062;2023-02-15T09:29:55;37.90;;;18.33;;
53339;SDS011;46212;50.258;19.062;2023-02-15T09:32:21;40.53;;;18.73;;
53339;SDS011;46212;50.258;19.062;2023-02-15T09:34:47;35.63;;;17.00;;
53339;SDS011;46212;50.258;19.062;2023-02-15T09:37:13;37.70;;;17.27;;
53339;SDS011;46212;50.258;19.062;2023-02-15T09:39:39;34.03;;;17.20;;
53339;SDS011;46212;50.258;19.062;2023-02-15T09:47:44;33.83;;;17.45;;
53339;SDS011;46212;50.258;19.062;2023-02-15T09:56:35;35.15;;;16.17;;
53339;SDS011;46212;50.258;19.062;2023-02-15T10:13:04;29.38;;;15.70;;
53339;SDS011;46212;50.258;19.062;2023-02-15T10:21:07;24.63;;;12.68;;
53339;SDS011;46212;50.258;19.062;2023-02-15T10:26:50;26.67;;;13.15;;
53339;SDS011;46212;50.258;19.062;2023-02-15T10:31:56;23.25;;;12.35;;
53339;SDS011;46212;50.258;19.062;2023-02-15T10:37:26;25.42;;;13.57;;
53339;SDS011;46212;50.258;19.062;2023-02-15T10:45:15;24.40;;;14.20;;
53339;SDS011;46212;50.258;19.062;2023-02-15T11:00:43;51.63;;;27.58;;
53339;SDS011;46212;50.258;19.062;2023-02-15T11:08:31;22.67;;;10.35;;
53339;SDS011;46212;50.258;19.062;2023-02-15T11:11:02;20.80;;;11.02;;
53339;SDS011;46212;50.258;19.062;2023-02-15T11:13:33;19.83;;;9.60;;
53339;SDS011;46212;50.258;19.062;2023-02-15T11:16:05;23.30;;;10.32;;
53339;SDS011;46212;50.258;19.062;2023-02-15T11:18:37;19.80;;;9.73;;
53339;SDS011;46212;50.258;19.062;2023-02-15T11:21:09;19.00;;;10.05;;
53339;SDS011;46212;50.258;19.062;2023-02-15T11:23:45;20.60;;;10.65;;
53339;SDS011;46212;50.258;19.062;2023-02-15T11:28:45;21.17;;;11.00;;
53339;SDS011;46212;50.258;19.062;2023-02-15T11:31:37;23.33;;;10.57;;
53339;SDS011;46212;50.258;19.062;2023-02-15T11:34:22;21.13;;;10.07;;
53339;SDS011;46212;50.258;19.062;2023-02-15T11:36:53;20.10;;;10.05;;
53339;SDS011;46212;50.258;19.062;2023-02-15T11:39:23;19.27;;;10.77;;
53339;SDS011;46212;50.258;19.062;2023-02-15T11:41:55;20.15;;;10.20;;
53339;SDS011;46212;50.258;19.062;2023-02-15T11:44:31;19.90;;;11.57;;
53339;SDS011;46212;50.258;19.062;2023-02-15T11:47:00;19.83;;;10.65;;
53339;SDS011;46212;50.258;19.062;2023-02-15T11:49:31;19.70;;;10.27;;
53339;SDS011;46212;50.258;19.062;2023-02-15T11:52:02;21.98;;;10.52;;
53339;SDS011;46212;50.258;19.062;2023-02-15T11:54:32;72.97;;;37.40;;
53339;SDS011;46212;50.258;19.062;2023-02-15T12:02:40;17.92;;;9.70;;
53339;SDS011;46212;50.258;19.062;2023-02-15T12:05:13;21.90;;;10.82;;
53339;SDS011;46212;50.258;19.062;2023-02-15T12:10:18;18.25;;;10.57;;
53339;SDS011;46212;50.258;19.062;2023-02-15T12:12:53;19.05;;;9.82;;
53339;SDS011;46212;50.258;19.062;2023-02-15T12:15:35;22.63;;;11.82;;
53339;SDS011;46212;50.258;19.062;2023-02-15T12:18:01;18.52;;;9.80;;
53339;SDS011;46212;50.258;19.062;2023-02-15T12:20:31;17.40;;;8.83;;
53339;SDS011;46212;50.258;19.062;2023-02-15T12:23:05;15.57;;;8.73;;
53339;SDS011;46212;50.258;19.062;2023-02-15T12:25:52;21.90;;;9.40;;
53339;SDS011;46212;50.258;19.062;2023-02-15T12:28:30;18.48;;;9.77;;
53339;SDS011;46212;50.258;19.062;2023-02-15T12:31:35;20.98;;;10.68;;
53339;SDS011;46212;50.258;19.062;2023-02-15T12:34:09;16.23;;;9.18;;
53339;SDS011;46212;50.258;19.062;2023-02-15T12:36:40;18.92;;;9.13;;
53339;SDS011;46212;50.258;19.062;2023-02-15T12:41:37;19.07;;;9.20;;
53339;SDS011;46212;50.258;19.062;2023-02-15T12:44:06;18.92;;;10.43;;
53339;SDS011;46212;50.258;19.062;2023-02-15T12:46:53;19.30;;;11.20;;
53339;SDS011;46212;50.258;19.062;2023-02-15T12:49:23;17.92;;;10.43;;
53339;SDS011;46212;50.258;19.062;2023-02-15T12:52:02;19.38;;;10.10;;
53339;SDS011;46212;50.258;19.062;2023-02-15T12:54:48;19.73;;;9.82;;
53339;SDS011;46212;50.258;19.062;2023-02-15T13:00:03;20.27;;;10.82;;
53339;SDS011;46212;50.258;19.062;2023-02-15T13:08:00;17.40;;;10.07;;
53339;SDS011;46212;50.258;19.062;2023-02-15T13:10:35;20.75;;;10.82;;
53339;SDS011;46212;50.258;19.062;2023-02-15T13:13:10;17.70;;;10.32;;
53339;SDS011;46212;50.258;19.062;2023-02-15T13:15:43;18.13;;;9.18;;
53339;SDS011;46212;50.258;19.062;2023-02-15T13:18:16;19.35;;;10.13;;
53339;SDS011;46212;50.258;19.062;2023-02-15T13:20:46;18.52;;;10.70;;
53339;SDS011;46212;50.258;19.062;2023-02-15T13:25:47;14.57;;;9.43;;
53339;SDS011;46212;50.258;19.062;2023-02-15T13:28:16;19.58;;;11.07;;
53339;SDS011;46212;50.258;19.062;2023-02-15T13:30:46;17.17;;;9.88;;
53339;SDS011;46212;50.258;19.062;2023-02-15T13:33:16;19.05;;;9.73;;
53339;SDS011;46212;50.258;19.062;2023-02-15T13:38:31;18.05;;;10.30;;
53339;SDS011;46212;50.258;19.062;2023-02-15T13:41:09;21.83;;;11.85;;
53339;SDS011;46212;50.258;19.062;2023-02-15T13:46:11;23.50;;;10.87;;
53339;SDS011;46212;50.258;19.062;2023-02-15T13:54:48;20.92;;;10.68;;
53339;SDS011;46212;50.258;19.062;2023-02-15T14:08:01;20.77;;;11.52;;
53339;SDS011;46212;50.258;19.062;2023-02-15T14:14:06;17.55;;;10.70;;
53339;SDS011;46212;50.258;19.062;2023-02-15T14:19:43;17.85;;;10.57;;
53339;SDS011;46212;50.258;19.062;2023-02-15T14:30:38;18.20;;;11.82;;
53339;SDS011;46212;50.258;19.062;2023-02-15T14:35:40;18.25;;;12.23;;
53339;SDS011;46212;50.258;19.062;2023-02-15T14:38:15;17.77;;;12.80;;
53339;SDS011;46212;50.258;19.062;2023-02-15T14:40:52;18.92;;;12.27;;
53339;SDS011;46212;50.258;19.062;2023-02-15T14:49:14;17.15;;;11.90;;
53339;SDS011;46212;50.258;19.062;2023-02-15T14:54:54;19.40;;;13.05;;
53339;SDS011;46212;50.258;19.062;2023-02-15T14:59:36;20.08;;;12.40;;
53339;SDS011;46212;50.258;19.062;2023-02-15T15:04:37;22.83;;;13.10;;
53339;SDS011;46212;50.258;19.062;2023-02-15T15:07:18;21.67;;;13.70;;
53339;SDS011;46212;50.258;19.062;2023-02-15T15:10:04;20.80;;;13.27;;
53339;SDS011;46212;50.258;19.062;2023-02-15T15:17:54;39.08;;;25.48;;
53339;SDS011;46212;50.258;19.062;2023-02-15T15:23:33;20.48;;;13.10;;
53339;SDS011;46212;50.258;19.062;2023-02-15T15:25:43;22.58;;;13.45;;
53339;SDS011;46212;50.258;19.062;2023-02-15T15:28:52;25.13;;;15.98;;
53339;SDS011;46212;50.258;19.062;2023-02-15T15:34:08;23.88;;;14.85;;
53339;SDS011;46212;50.258;19.062;2023-02-15T15:39:32;24.27;;;14.02;;
53339;SDS011;46212;50.258;19.062;2023-02-15T15:50:44;30.80;;;14.25;;
53339;SDS011;46212;50.258;19.062;2023-02-15T15:53:23;30.50;;;15.00;;
53339;SDS011;46212;50.258;19.062;2023-02-15T15:55:50;30.17;;;14.50;;
53339;SDS011;46212;50.258;19.062;2023-02-15T15:58:22;27.20;;;14.10;;
53339;SDS011;46212;50.258;19.062;2023-02-15T16:03:27;31.75;;;15.70;;
53339;SDS011;46212;50.258;19.062;2023-02-15T16:05:53;25.50;;;13.52;;
53339;SDS011;46212;50.258;19.062;2023-02-15T16:11:00;24.13;;;13.73;;
53339;SDS011;46212;50.258;19.062;2023-02-15T16:13:35;25.83;;;14.38;;
53339;SDS011;46212;50.258;19.062;2023-02-15T16:16:01;33.67;;;16.07;;
53339;SDS011;46212;50.258;19.062;2023-02-15T16:18:26;35.70;;;16.23;;
53339;SDS011;46212;50.258;19.062;2023-02-15T16:20:54;28.73;;;14.17;;
53339;SDS011;46212;50.258;19.062;2023-02-15T16:28:51;30.17;;;13.88;;
53339;SDS011;46212;50.258;19.062;2023-02-15T16:31:18;24.17;;;12.85;;
53339;SDS011;46212;50.258;19.062;2023-02-15T16:33:47;35.38;;;15.48;;
53339;SDS011;46212;50.258;19.062;2023-02-15T16:36:23;25.73;;;13.10;;
53339;SDS011;46212;50.258;19.062;2023-02-15T16:41:16;27.42;;;13.82;;
53339;SDS011;46212;50.258;19.062;2023-02-15T16:43:46;29.30;;;14.63;;
53339;SDS011;46212;50.258;19.062;2023-02-15T16:46:16;36.45;;;17.48;;
53339;SDS011;46212;50.258;19.062;2023-02-15T16:48:51;37.40;;;16.47;;
53339;SDS011;46212;50.258;19.062;2023-02-15T16:51:20;30.70;;;15.95;;
53339;SDS011;46212;50.258;19.062;2023-02-15T16:53:48;38.25;;;16.13;;
53339;SDS011;46212;50.258;19.062;2023-02-15T16:56:14;31.03;;;15.23;;
53339;SDS011;46212;50.258;19.062;2023-02-15T16:58:41;26.88;;;14.38;;
53339;SDS011;46212;50.258;19.062;2023-02-15T17:01:10;36.58;;;16.10;;
53339;SDS011;46212;50.258;19.062;2023-02-15T17:03:38;32.53;;;15.10;;
53339;SDS011;46212;50.258;19.062;2023-02-15T17:06:17;41.00;;;20.55;;
53339;SDS011;46212;50.258;19.062;2023-02-15T17:08:48;35.03;;;17.85;;
53339;SDS011;46212;50.258;19.062;2023-02-15T17:11:15;45.30;;;23.30;;
53339;SDS011;46212;50.258;19.062;2023-02-15T17:16:32;60.85;;;30.42;;
53339;SDS011;46212;50.258;19.062;2023-02-15T17:19:01;51.28;;;24.98;;
53339;SDS011;46212;50.258;19.062;2023-02-15T17:21:41;46.25;;;24.02;;
53339;SDS011;46212;50.258;19.062;2023-02-15T17:24:24;41.47;;;19.58;;
53339;SDS011;46212;50.258;19.062;2023-02-15T17:27:03;34.97;;;16.75;;
53339;SDS011;46212;50.258;19.062;2023-02-15T17:30:15;37.50;;;17.80;;
53339;SDS011;46212;50.258;19.062;2023-02-15T17:33:01;36.90;;;17.60;;
53339;SDS011;46212;50.258;19.062;2023-02-15T17:35:29;55.92;;;30.95;;
53339;SDS011;46212;50.258;19.062;2023-02-15T17:38:00;45.33;;;23.00;;
53339;SDS011;46212;50.258;19.062;2023-02-15T17:40:27;46.38;;;27.05;;
53339;SDS011;46212;50.258;19.062;2023-02-15T17:42:57;48.92;;;23.13;;
53339;SDS011;46212;50.258;19.062;2023-02-15T17:45:25;47.97;;;22.27;;
53339;SDS011;46212;50.258;19.062;2023-02-15T17:47:56;40.65;;;19.25;;
53339;SDS011;46212;50.258;19.062;2023-02-15T17:50:24;41.63;;;20.67;;
53339;SDS011;46212;50.258;19.062;2023-02-15T17:52:51;52.63;;;22.95;;
53339;SDS011;46212;50.258;19.062;2023-02-15T17:55:20;65.63;;;29.05;;